createdAt,value
2022-12-17T00:00:16.711Z,1016.88
2022-12-17T00:01:16.682Z,1016.91
2022-12-17T00:02:16.762Z,1016.92
2022-12-17T00:03:16.737Z,1016.97
2022-12-17T00:04:16.732Z,1016.95
2022-12-17T00:05:16.621Z,1016.97
2022-12-17T00:06:16.583Z,1016.97
2022-12-17T00:07:16.567Z,1016.99
2022-12-17T00:08:16.549Z,1017.00
2022-12-17T00:09:16.535Z,1017.01
2022-12-17T00:10:16.521Z,1017.05
2022-12-17T00:11:16.503Z,1017.01
2022-12-17T00:12:16.488Z,1017.04
2022-12-17T00:13:16.477Z,1017.04
2022-12-17T00:14:16.458Z,1017.04
2022-12-17T00:15:16.442Z,1017.02
2022-12-17T00:16:16.458Z,1017.02
2022-12-17T00:17:16.417Z,1017.08
2022-12-17T00:18:16.402Z,1017.11
2022-12-17T00:19:16.389Z,1017.09
2022-12-17T00:20:16.363Z,1017.08
2022-12-17T00:21:16.357Z,1017.05
2022-12-17T00:22:16.344Z,1017.07
2022-12-17T00:23:16.322Z,1017.11
2022-12-17T00:24:16.303Z,1017.13
2022-12-17T00:25:16.290Z,1017.13
2022-12-17T00:26:16.269Z,1017.14
2022-12-17T00:27:16.399Z,1017.12
2022-12-17T00:28:16.245Z,1017.16
2022-12-17T00:29:16.226Z,1017.13
2022-12-17T00:30:16.214Z,1017.15
2022-12-17T00:31:16.263Z,1017.15
2022-12-17T00:32:16.183Z,1017.13
2022-12-17T00:33:16.167Z,1017.16
2022-12-17T00:34:16.153Z,1017.16
2022-12-17T00:35:16.164Z,1017.18
2022-12-17T00:36:16.116Z,1017.17
2022-12-17T00:37:16.102Z,1017.19
2022-12-17T00:38:16.088Z,1017.18
2022-12-17T00:39:16.069Z,1017.19
2022-12-17T00:40:16.057Z,1017.20
2022-12-17T00:41:16.040Z,1017.18
2022-12-17T00:42:16.020Z,1017.21
2022-12-17T00:43:16.010Z,1017.20
2022-12-17T00:44:15.996Z,1017.19
2022-12-17T00:45:15.983Z,1017.22
2022-12-17T00:46:16.015Z,1017.27
2022-12-17T00:47:15.949Z,1017.23
2022-12-17T00:48:15.934Z,1017.26
2022-12-17T00:49:15.945Z,1017.23
2022-12-17T00:50:15.904Z,1017.22
2022-12-17T00:51:15.886Z,1017.28
2022-12-17T00:52:15.872Z,1017.29
2022-12-17T00:53:15.856Z,1017.33
2022-12-17T00:54:15.838Z,1017.35
2022-12-17T00:55:15.830Z,1017.38
2022-12-17T00:56:15.811Z,1017.42
2022-12-17T00:57:15.795Z,1017.42
2022-12-17T00:58:16.082Z,1017.42
2022-12-17T00:59:15.763Z,1017.46
2022-12-17T01:00:15.745Z,1017.48
2022-12-17T01:01:15.832Z,1017.44
2022-12-17T01:02:15.775Z,1017.41
2022-12-17T01:03:15.701Z,1017.45
2022-12-17T01:04:15.684Z,1017.43
2022-12-17T01:05:15.665Z,1017.45
2022-12-17T01:06:15.653Z,1017.49
2022-12-17T01:07:15.631Z,1017.48
2022-12-17T01:08:15.621Z,1017.51
2022-12-17T01:09:15.606Z,1017.47
2022-12-17T01:10:15.645Z,1017.52
2022-12-17T01:11:15.571Z,1017.55
2022-12-17T01:12:15.552Z,1017.57
2022-12-17T01:13:15.604Z,1017.59
2022-12-17T01:14:15.577Z,1017.61
2022-12-17T01:15:15.510Z,1017.64
2022-12-17T01:16:15.509Z,1017.61
2022-12-17T01:17:15.480Z,1017.62
2022-12-17T01:18:15.463Z,1017.66
2022-12-17T01:19:15.870Z,1017.67
2022-12-17T01:20:15.431Z,1017.68
2022-12-17T01:21:15.414Z,1017.67
2022-12-17T01:22:15.401Z,1017.67
2022-12-17T01:23:15.387Z,1017.66
2022-12-17T01:24:15.372Z,1017.67
2022-12-17T01:25:15.354Z,1017.69
2022-12-17T01:26:15.355Z,1017.69
2022-12-17T01:27:15.324Z,1017.72
2022-12-17T01:28:15.305Z,1017.75
2022-12-17T01:29:15.296Z,1017.71
2022-12-17T01:30:15.284Z,1017.71
2022-12-17T01:31:15.337Z,1017.75
2022-12-17T01:32:15.245Z,1017.75
2022-12-17T01:33:15.230Z,1017.74
2022-12-17T01:34:15.214Z,1017.79
2022-12-17T01:35:15.199Z,1017.79
2022-12-17T01:36:15.185Z,1017.80
2022-12-17T01:37:15.171Z,1017.80
2022-12-17T01:38:15.151Z,1017.78
2022-12-17T01:39:15.136Z,1017.76
2022-12-17T01:40:15.121Z,1017.76
2022-12-17T01:41:15.105Z,1017.79
2022-12-17T01:42:15.086Z,1017.79
2022-12-17T01:43:15.073Z,1017.80
2022-12-17T01:44:15.063Z,1017.81
2022-12-17T01:45:15.047Z,1017.81
2022-12-17T01:46:15.075Z,1017.85
2022-12-17T01:47:15.012Z,1017.83
2022-12-17T01:48:14.993Z,1017.85
2022-12-17T01:49:14.981Z,1017.83
2022-12-17T01:50:14.965Z,1017.88
2022-12-17T01:51:14.947Z,1017.84
2022-12-17T01:52:15.130Z,1017.85
2022-12-17T01:53:14.920Z,1017.82
2022-12-17T01:54:14.901Z,1017.86
2022-12-17T01:55:14.887Z,1017.86
2022-12-17T01:56:14.875Z,1017.89
2022-12-17T01:57:14.857Z,1017.88
2022-12-17T01:58:14.842Z,1017.86
2022-12-17T01:59:14.827Z,1017.88
2022-12-17T02:00:14.810Z,1017.91
2022-12-17T02:01:15.042Z,1017.87
2022-12-17T02:02:14.919Z,1017.90
2022-12-17T02:03:14.828Z,1017.92
2022-12-17T02:04:14.748Z,1017.86
2022-12-17T02:05:14.733Z,1017.94
2022-12-17T02:06:14.714Z,1017.92
2022-12-17T02:07:14.727Z,1017.91
2022-12-17T02:08:14.684Z,1017.89
2022-12-17T02:09:14.705Z,1017.89
2022-12-17T02:10:14.661Z,1017.89
2022-12-17T02:11:14.656Z,1017.90
2022-12-17T02:12:14.626Z,1017.93
2022-12-17T02:13:14.620Z,1017.89
2022-12-17T02:14:14.592Z,1017.94
2022-12-17T02:15:14.575Z,1017.92
2022-12-17T02:16:14.624Z,1017.94
2022-12-17T02:17:14.551Z,1017.91
2022-12-17T02:18:14.533Z,1017.88
2022-12-17T02:19:14.531Z,1017.89
2022-12-17T02:20:14.507Z,1017.88
2022-12-17T02:21:14.484Z,1017.89
2022-12-17T02:22:14.469Z,1017.87
2022-12-17T02:23:14.481Z,1017.85
2022-12-17T02:24:14.440Z,1017.88
2022-12-17T02:25:14.429Z,1017.85
2022-12-17T02:26:14.406Z,1017.91
2022-12-17T02:27:14.397Z,1017.90
2022-12-17T02:28:14.386Z,1017.89
2022-12-17T02:29:14.367Z,1017.93
2022-12-17T02:30:14.341Z,1017.91
2022-12-17T02:31:14.392Z,1017.90
2022-12-17T02:32:14.344Z,1017.90
2022-12-17T02:33:14.299Z,1017.90
2022-12-17T02:34:14.283Z,1017.92
2022-12-17T02:35:14.274Z,1017.88
2022-12-17T02:36:14.255Z,1017.88
2022-12-17T02:37:14.234Z,1017.90
2022-12-17T02:38:14.229Z,1017.92
2022-12-17T02:39:14.215Z,1017.97
2022-12-17T02:40:14.191Z,1017.93
2022-12-17T02:41:14.178Z,1017.91
2022-12-17T02:42:14.162Z,1017.96
2022-12-17T02:43:14.146Z,1017.96
2022-12-17T02:44:14.128Z,1017.98
2022-12-17T02:45:14.114Z,1017.99
2022-12-17T02:46:14.194Z,1017.97
2022-12-17T02:47:14.085Z,1018.02
2022-12-17T02:48:14.067Z,1018.01
2022-12-17T02:49:14.065Z,1018.01
2022-12-17T02:50:14.033Z,1018.02
2022-12-17T02:51:14.021Z,1018.01
2022-12-17T02:52:14.011Z,1018.02
2022-12-17T02:53:13.993Z,1018.04
2022-12-17T02:54:13.983Z,1018.06
2022-12-17T02:55:13.956Z,1018.07
2022-12-17T02:56:13.953Z,1018.06
2022-12-17T02:57:13.932Z,1018.07
2022-12-17T02:58:13.912Z,1018.08
2022-12-17T02:59:13.895Z,1018.09
2022-12-17T03:00:13.879Z,1018.06
2022-12-17T03:01:13.987Z,1018.10
2022-12-17T03:02:13.914Z,1018.08
2022-12-17T03:03:13.924Z,1018.10
2022-12-17T03:04:13.831Z,1018.09
2022-12-17T03:05:42.735Z,1018.11
2022-12-17T03:06:13.788Z,1018.10
2022-12-17T03:07:13.770Z,1018.08
2022-12-17T03:08:13.754Z,1018.15
2022-12-17T03:09:13.785Z,1018.14
2022-12-17T03:10:13.727Z,1018.17
2022-12-17T03:11:13.709Z,1018.19
2022-12-17T03:12:13.696Z,1018.21
2022-12-17T03:13:13.720Z,1018.20
2022-12-17T03:14:13.666Z,1018.23
2022-12-17T03:15:13.654Z,1018.25
2022-12-17T03:16:13.709Z,1018.28
2022-12-17T03:17:13.675Z,1018.24
2022-12-17T03:18:13.606Z,1018.27
2022-12-17T03:19:13.591Z,1018.29
2022-12-17T03:20:13.571Z,1018.27
2022-12-17T03:21:13.552Z,1018.29
2022-12-17T03:22:13.538Z,1018.30
2022-12-17T03:23:13.526Z,1018.33
2022-12-17T03:24:13.538Z,1018.31
2022-12-17T03:25:13.492Z,1018.33
2022-12-17T03:26:13.478Z,1018.34
2022-12-17T03:27:13.461Z,1018.37
2022-12-17T03:28:13.447Z,1018.35
2022-12-17T03:29:13.480Z,1018.35
2022-12-17T03:30:13.415Z,1018.36
2022-12-17T03:31:13.477Z,1018.36
2022-12-17T03:32:13.387Z,1018.39
2022-12-17T03:33:13.368Z,1018.39
2022-12-17T03:34:13.352Z,1018.40
2022-12-17T03:35:13.335Z,1018.39
2022-12-17T03:36:13.325Z,1018.38
2022-12-17T03:37:13.305Z,1018.41
2022-12-17T03:38:13.329Z,1018.42
2022-12-17T03:39:13.302Z,1018.40
2022-12-17T03:40:13.258Z,1018.37
2022-12-17T03:41:13.247Z,1018.40
2022-12-17T03:42:13.234Z,1018.40
2022-12-17T03:43:13.213Z,1018.43
2022-12-17T03:44:13.195Z,1018.40
2022-12-17T03:45:13.185Z,1018.43
2022-12-17T03:46:13.197Z,1018.46
2022-12-17T03:47:13.155Z,1018.46
2022-12-17T03:48:13.134Z,1018.48
2022-12-17T03:49:13.120Z,1018.53
2022-12-17T03:50:13.106Z,1018.54
2022-12-17T03:51:13.088Z,1018.55
2022-12-17T03:52:13.075Z,1018.55
2022-12-17T03:53:13.053Z,1018.55
2022-12-17T03:54:13.043Z,1018.52
2022-12-17T03:55:13.032Z,1018.56
2022-12-17T03:56:13.014Z,1018.54
2022-12-17T03:57:16.041Z,1018.56
2022-12-17T03:58:12.977Z,1018.57
2022-12-17T03:59:12.972Z,1018.57
2022-12-17T04:00:12.958Z,1018.59
2022-12-17T04:01:13.105Z,1018.61
2022-12-17T04:02:13.080Z,1018.57
2022-12-17T04:03:12.970Z,1018.59
2022-12-17T04:04:12.880Z,1018.59
2022-12-17T04:05:19.740Z,1018.56
2022-12-17T04:06:12.930Z,1018.63
2022-12-17T04:07:12.841Z,1018.66
2022-12-17T04:08:12.820Z,1018.64
2022-12-17T04:09:12.800Z,1018.65
2022-12-17T04:10:12.789Z,1018.64
2022-12-17T04:11:12.777Z,1018.68
2022-12-17T04:12:12.758Z,1018.69
2022-12-17T04:13:12.768Z,1018.72
2022-12-17T04:14:12.726Z,1018.71
2022-12-17T04:15:12.709Z,1018.74
2022-12-17T04:16:12.816Z,1018.74
2022-12-17T04:17:12.676Z,1018.79
2022-12-17T04:18:12.659Z,1018.78
2022-12-17T04:19:12.649Z,1018.79
2022-12-17T04:20:12.633Z,1018.80
2022-12-17T04:21:12.620Z,1018.85
2022-12-17T04:22:12.597Z,1018.86
2022-12-17T04:23:12.589Z,1018.89
2022-12-17T04:24:12.572Z,1018.90
2022-12-17T04:25:12.557Z,1018.88
2022-12-17T04:26:12.539Z,1018.90
2022-12-17T04:27:12.519Z,1018.89
2022-12-17T04:28:12.509Z,1018.89
2022-12-17T04:29:12.488Z,1018.92
2022-12-17T04:30:12.474Z,1018.87
2022-12-17T04:31:12.504Z,1018.91
2022-12-17T04:32:12.449Z,1018.90
2022-12-17T04:33:12.424Z,1018.92
2022-12-17T04:34:12.415Z,1018.92
2022-12-17T04:35:12.394Z,1018.89
2022-12-17T04:36:12.377Z,1018.92
2022-12-17T04:37:12.356Z,1018.97
2022-12-17T04:38:12.346Z,1018.97
2022-12-17T04:39:12.334Z,1018.95
2022-12-17T04:40:12.326Z,1018.97
2022-12-17T04:41:12.300Z,1018.95
2022-12-17T04:42:12.282Z,1018.99
2022-12-17T04:43:12.265Z,1019.00
2022-12-17T04:44:12.251Z,1019.02
2022-12-17T04:45:12.236Z,1019.06
2022-12-17T04:46:12.251Z,1019.02
2022-12-17T04:47:12.204Z,1019.00
2022-12-17T04:48:12.189Z,1019.04
2022-12-17T04:49:12.174Z,1019.05
2022-12-17T04:50:12.163Z,1019.08
2022-12-17T04:51:12.143Z,1019.05
2022-12-17T04:52:12.124Z,1019.06
2022-12-17T04:53:12.111Z,1019.02
2022-12-17T04:54:12.092Z,1019.05
2022-12-17T04:55:12.084Z,1019.08
2022-12-17T04:56:12.057Z,1019.00
2022-12-17T04:57:12.048Z,1018.99
2022-12-17T04:58:12.031Z,1018.97
2022-12-17T04:59:12.017Z,1019.02
2022-12-17T05:00:11.997Z,1019.02
2022-12-17T05:01:12.187Z,1019.01
2022-12-17T05:02:12.111Z,1019.03
2022-12-17T05:03:12.045Z,1019.05
2022-12-17T05:04:11.934Z,1019.06
2022-12-17T05:05:11.919Z,1019.07
2022-12-17T05:06:11.904Z,1019.09
2022-12-17T05:07:11.889Z,1019.11
2022-12-17T05:08:11.873Z,1019.12
2022-12-17T05:09:11.883Z,1019.17
2022-12-17T05:10:11.843Z,1019.15
2022-12-17T05:11:11.832Z,1019.14
2022-12-17T05:12:11.809Z,1019.17
2022-12-17T05:13:11.797Z,1019.17
2022-12-17T05:14:11.777Z,1019.21
2022-12-17T05:15:11.759Z,1019.18
2022-12-17T05:16:11.893Z,1019.21
2022-12-17T05:17:11.731Z,1019.20
2022-12-17T05:18:11.715Z,1019.19
2022-12-17T05:19:11.696Z,1019.20
2022-12-17T05:20:11.689Z,1019.19
2022-12-17T05:21:11.667Z,1019.20
2022-12-17T05:22:11.665Z,1019.23
2022-12-17T05:23:11.760Z,1019.29
2022-12-17T05:24:11.619Z,1019.28
2022-12-17T05:25:11.606Z,1019.27
2022-12-17T05:26:11.591Z,1019.29
2022-12-17T05:27:11.585Z,1019.28
2022-12-17T05:28:11.557Z,1019.26
2022-12-17T05:29:15.788Z,1019.27
2022-12-17T05:30:11.525Z,1019.29
2022-12-17T05:31:11.568Z,1019.31
2022-12-17T05:32:11.557Z,1019.32
2022-12-17T05:33:11.480Z,1019.33
2022-12-17T05:34:11.461Z,1019.31
2022-12-17T05:35:11.447Z,1019.34
2022-12-17T05:36:11.429Z,1019.30
2022-12-17T05:37:11.418Z,1019.37
2022-12-17T05:38:11.399Z,1019.37
2022-12-17T05:39:11.383Z,1019.43
2022-12-17T05:40:12.820Z,1019.46
2022-12-17T05:41:11.349Z,1019.43
2022-12-17T05:42:11.336Z,1019.46
2022-12-17T05:43:11.324Z,1019.49
2022-12-17T05:44:11.301Z,1019.53
2022-12-17T05:45:11.294Z,1019.54
2022-12-17T05:46:11.331Z,1019.56
2022-12-17T05:47:11.265Z,1019.57
2022-12-17T05:48:11.252Z,1019.57
2022-12-17T05:49:11.233Z,1019.59
2022-12-17T05:50:11.212Z,1019.64
2022-12-17T05:51:11.191Z,1019.63
2022-12-17T05:52:11.178Z,1019.62
2022-12-17T05:53:11.165Z,1019.65
2022-12-17T05:54:11.142Z,1019.64
2022-12-17T05:55:11.131Z,1019.65
2022-12-17T05:56:11.115Z,1019.67
2022-12-17T05:57:11.099Z,1019.67
2022-12-17T05:58:11.082Z,1019.70
2022-12-17T05:59:11.072Z,1019.70
2022-12-17T06:00:11.050Z,1019.70
2022-12-17T06:01:11.045Z,1019.73
2022-12-17T06:02:11.018Z,1019.75
2022-12-17T06:03:11.098Z,1019.80
2022-12-17T06:04:11.115Z,1019.79
2022-12-17T06:05:10.973Z,1019.81
2022-12-17T06:06:10.957Z,1019.84
2022-12-17T06:07:10.940Z,1019.78
2022-12-17T06:08:10.924Z,1019.85
2022-12-17T06:09:10.908Z,1019.84
2022-12-17T06:10:10.904Z,1019.84
2022-12-17T06:11:10.876Z,1019.86
2022-12-17T06:12:10.861Z,1019.85
2022-12-17T06:13:10.847Z,1019.86
2022-12-17T06:14:10.829Z,1019.83
2022-12-17T06:15:10.817Z,1019.87
2022-12-17T06:16:10.860Z,1019.83
2022-12-17T06:17:10.783Z,1019.87
2022-12-17T06:18:16.326Z,1019.95
2022-12-17T06:19:10.766Z,1019.91
2022-12-17T06:20:10.749Z,1019.96
2022-12-17T06:21:10.720Z,1019.97
2022-12-17T06:22:10.704Z,1019.97
2022-12-17T06:23:10.688Z,1019.93
2022-12-17T06:24:10.670Z,1019.94
2022-12-17T06:25:10.657Z,1019.96
2022-12-17T06:26:10.637Z,1019.97
2022-12-17T06:27:10.625Z,1019.97
2022-12-17T06:28:10.610Z,1019.97
2022-12-17T06:29:10.592Z,1019.96
2022-12-17T06:30:14.275Z,1019.99
2022-12-17T06:31:10.621Z,1019.94
2022-12-17T06:32:10.545Z,1019.94
2022-12-17T06:33:10.526Z,1019.95
2022-12-17T06:34:10.512Z,1019.94
2022-12-17T06:35:10.497Z,1019.96
2022-12-17T06:36:10.482Z,1019.99
2022-12-17T06:37:10.463Z,1020.02
2022-12-17T06:38:10.445Z,1020.04
2022-12-17T06:39:10.435Z,1020.06
2022-12-17T06:40:10.420Z,1020.05
2022-12-17T06:41:10.412Z,1020.06
2022-12-17T06:42:10.385Z,1020.06
2022-12-17T06:43:10.369Z,1020.11
2022-12-17T06:44:10.356Z,1020.13
2022-12-17T06:45:10.339Z,1020.10
2022-12-17T06:46:10.325Z,1020.15
2022-12-17T06:47:10.426Z,1020.14
2022-12-17T06:48:10.315Z,1020.17
2022-12-17T06:49:10.275Z,1020.15
2022-12-17T06:50:10.258Z,1020.19
2022-12-17T06:51:10.244Z,1020.22
2022-12-17T06:52:10.225Z,1020.23
2022-12-17T06:53:10.215Z,1020.20
2022-12-17T06:54:10.197Z,1020.21
2022-12-17T06:55:10.175Z,1020.27
2022-12-17T06:56:10.163Z,1020.28
2022-12-17T06:57:10.192Z,1020.31
2022-12-17T06:58:10.137Z,1020.33
2022-12-17T06:59:10.115Z,1020.37
2022-12-17T07:00:10.103Z,1020.40
2022-12-17T07:01:10.173Z,1020.43
2022-12-17T07:02:10.217Z,1020.47
2022-12-17T07:03:14.549Z,1020.48
2022-12-17T07:04:10.035Z,1020.53
2022-12-17T07:05:10.082Z,1020.51
2022-12-17T07:06:10.004Z,1020.53
2022-12-17T07:07:09.998Z,1020.57
2022-12-17T07:08:09.973Z,1020.59
2022-12-17T07:09:09.960Z,1020.59
2022-12-17T07:10:14.085Z,1020.59
2022-12-17T07:11:09.935Z,1020.62
2022-12-17T07:12:09.946Z,1020.62
2022-12-17T07:13:09.894Z,1020.64
2022-12-17T07:14:09.879Z,1020.67
2022-12-17T07:15:09.865Z,1020.65
2022-12-17T07:16:09.882Z,1020.64
2022-12-17T07:17:09.828Z,1020.64
2022-12-17T07:18:09.812Z,1020.65
2022-12-17T07:19:09.795Z,1020.63
2022-12-17T07:20:09.782Z,1020.68
2022-12-17T07:21:09.767Z,1020.68
2022-12-17T07:22:09.758Z,1020.70
2022-12-17T07:23:09.737Z,1020.74
2022-12-17T07:24:09.719Z,1020.75
2022-12-17T07:25:09.703Z,1020.76
2022-12-17T07:26:09.686Z,1020.73
2022-12-17T07:27:09.671Z,1020.76
2022-12-17T07:28:09.656Z,1020.78
2022-12-17T07:29:09.636Z,1020.80
2022-12-17T07:30:09.627Z,1020.79
2022-12-17T07:31:09.626Z,1020.78
2022-12-17T07:32:09.674Z,1020.81
2022-12-17T07:33:09.585Z,1020.82
2022-12-17T07:34:09.562Z,1020.83
2022-12-17T07:35:09.560Z,1020.83
2022-12-17T07:36:09.531Z,1020.86
2022-12-17T07:37:09.511Z,1020.85
2022-12-17T07:38:09.513Z,1020.88
2022-12-17T07:39:09.497Z,1020.92
2022-12-17T07:40:09.467Z,1020.99
2022-12-17T07:41:09.455Z,1020.95
2022-12-17T07:42:09.438Z,1020.93
2022-12-17T07:43:09.426Z,1020.97
2022-12-17T07:44:09.405Z,1020.97
2022-12-17T07:45:09.504Z,1021.00
2022-12-17T07:46:09.432Z,1021.03
2022-12-17T07:47:09.359Z,1021.05
2022-12-17T07:48:09.344Z,1021.08
2022-12-17T07:49:09.327Z,1021.08
2022-12-17T07:50:09.320Z,1021.10
2022-12-17T07:51:09.315Z,1021.14
2022-12-17T07:52:09.281Z,1021.14
2022-12-17T07:53:09.266Z,1021.16
2022-12-17T07:54:09.253Z,1021.14
2022-12-17T07:55:12.056Z,1021.19
2022-12-17T07:56:09.224Z,1021.21
2022-12-17T07:57:09.202Z,1021.23
2022-12-17T07:58:09.189Z,1021.26
2022-12-17T07:59:09.177Z,1021.28
2022-12-17T08:00:09.159Z,1021.28
2022-12-17T08:01:09.177Z,1021.29
2022-12-17T08:02:09.262Z,1021.32
2022-12-17T08:03:09.233Z,1021.36
2022-12-17T08:04:09.103Z,1021.38
2022-12-17T08:05:09.080Z,1021.41
2022-12-17T08:06:09.077Z,1021.42
2022-12-17T08:07:13.236Z,1021.41
2022-12-17T08:08:09.033Z,1021.42
2022-12-17T08:09:09.022Z,1021.43
2022-12-17T08:10:09.005Z,1021.41
2022-12-17T08:11:08.989Z,1021.40
2022-12-17T08:12:09.017Z,1021.42
2022-12-17T08:13:13.929Z,1021.40
2022-12-17T08:14:08.940Z,1021.39
2022-12-17T08:15:08.925Z,1021.38
2022-12-17T08:16:08.928Z,1021.41
2022-12-17T08:17:08.895Z,1021.42
2022-12-17T08:18:08.879Z,1021.45
2022-12-17T08:19:08.874Z,1021.42
2022-12-17T08:20:08.844Z,1021.44
2022-12-17T08:21:08.841Z,1021.50
2022-12-17T08:22:08.817Z,1021.50
2022-12-17T08:23:08.796Z,1021.54
2022-12-17T08:24:08.788Z,1021.54
2022-12-17T08:25:08.781Z,1021.50
2022-12-17T08:26:08.758Z,1021.49
2022-12-17T08:27:08.739Z,1021.49
2022-12-17T08:28:11.305Z,1021.47
2022-12-17T08:29:08.765Z,1021.46
2022-12-17T08:30:08.694Z,1021.46
2022-12-17T08:31:08.719Z,1021.47
2022-12-17T08:32:08.661Z,1021.48
2022-12-17T08:33:08.644Z,1021.47
2022-12-17T08:34:08.628Z,1021.48
2022-12-17T08:35:08.621Z,1021.53
2022-12-17T08:36:08.600Z,1021.59
2022-12-17T08:37:08.594Z,1021.64
2022-12-17T08:38:08.567Z,1021.64
2022-12-17T08:39:08.609Z,1021.62
2022-12-17T08:40:08.535Z,1021.65
2022-12-17T08:41:08.518Z,1021.63
2022-12-17T08:42:08.506Z,1021.66
2022-12-17T08:43:08.488Z,1021.66
2022-12-17T08:44:08.468Z,1021.65
2022-12-17T08:45:08.457Z,1021.65
2022-12-17T08:46:08.492Z,1021.67
2022-12-17T08:47:08.423Z,1021.60
2022-12-17T08:48:08.410Z,1021.58
2022-12-17T08:49:08.427Z,1021.62
2022-12-17T08:50:08.381Z,1021.64
2022-12-17T08:51:08.360Z,1021.68
2022-12-17T08:52:08.347Z,1021.63
2022-12-17T08:53:08.328Z,1021.67
2022-12-17T08:54:08.318Z,1021.70
2022-12-17T08:55:08.302Z,1021.76
2022-12-17T08:56:08.285Z,1021.73
2022-12-17T08:57:08.267Z,1021.79
2022-12-17T08:58:08.273Z,1021.84
2022-12-17T08:59:08.269Z,1021.81
2022-12-17T09:00:08.220Z,1021.86
2022-12-17T09:01:08.267Z,1021.87
2022-12-17T09:02:08.361Z,1021.88
2022-12-17T09:03:08.261Z,1021.88
2022-12-17T09:04:08.159Z,1021.90
2022-12-17T09:05:08.143Z,1021.92
2022-12-17T09:06:08.128Z,1021.90
2022-12-17T09:07:08.119Z,1021.92
2022-12-17T09:08:08.103Z,1021.95
2022-12-17T09:09:08.078Z,1021.99
2022-12-17T09:10:08.065Z,1022.00
2022-12-17T09:11:08.051Z,1022.00
2022-12-17T09:12:08.035Z,1021.98
2022-12-17T09:13:08.034Z,1021.98
2022-12-17T09:14:08.005Z,1021.94
2022-12-17T09:15:07.994Z,1021.95
2022-12-17T09:16:07.973Z,1021.95
2022-12-17T09:17:08.038Z,1021.95
2022-12-17T09:18:07.947Z,1021.91
2022-12-17T09:19:08.009Z,1021.93
2022-12-17T09:20:07.921Z,1021.89
2022-12-17T09:21:07.897Z,1021.88
2022-12-17T09:22:07.880Z,1021.93
2022-12-17T09:23:07.863Z,1021.90
2022-12-17T09:24:07.850Z,1021.91
2022-12-17T09:25:07.834Z,1021.84
2022-12-17T09:26:07.820Z,1021.84
2022-12-17T09:27:07.802Z,1021.79
2022-12-17T09:28:07.791Z,1021.83
2022-12-17T09:29:07.773Z,1021.86
2022-12-17T09:30:07.764Z,1021.85
2022-12-17T09:31:07.805Z,1021.87
2022-12-17T09:32:07.726Z,1021.89
2022-12-17T09:33:07.710Z,1021.95
2022-12-17T09:34:07.701Z,1021.94
2022-12-17T09:35:07.680Z,1021.96
2022-12-17T09:36:07.667Z,1021.93
2022-12-17T09:37:07.653Z,1021.95
2022-12-17T09:38:07.649Z,1021.98
2022-12-17T09:39:07.618Z,1021.96
2022-12-17T09:40:07.610Z,1021.99
2022-12-17T09:41:07.593Z,1021.99
2022-12-17T09:42:08.179Z,1022.02
2022-12-17T09:43:08.055Z,1022.02
2022-12-17T09:44:07.825Z,1022.03
2022-12-17T09:45:07.556Z,1022.06
2022-12-17T09:46:07.999Z,1022.06
2022-12-17T09:47:07.497Z,1022.08
2022-12-17T09:48:07.486Z,1022.11
2022-12-17T09:49:07.472Z,1022.12
2022-12-17T09:50:07.454Z,1022.15
2022-12-17T09:51:07.440Z,1022.14
2022-12-17T09:52:07.423Z,1022.09
2022-12-17T09:53:07.411Z,1022.15
2022-12-17T09:54:07.397Z,1022.11
2022-12-17T09:55:07.376Z,1022.11
2022-12-17T09:56:07.369Z,1022.10
2022-12-17T09:57:07.349Z,1022.10
2022-12-17T09:58:07.357Z,1022.13
2022-12-17T09:59:07.318Z,1022.12
2022-12-17T10:00:07.326Z,1022.14
2022-12-17T10:01:07.329Z,1022.16
2022-12-17T10:02:07.513Z,1022.18
2022-12-17T10:03:07.319Z,1022.21
2022-12-17T10:04:07.242Z,1022.20
2022-12-17T10:05:07.583Z,1022.23
2022-12-17T10:06:07.213Z,1022.25
2022-12-17T10:07:07.219Z,1022.24
2022-12-17T10:08:07.187Z,1022.25
2022-12-17T10:09:07.169Z,1022.31
2022-12-17T10:10:07.149Z,1022.27
2022-12-17T10:11:07.136Z,1022.29
2022-12-17T10:12:07.123Z,1022.29
2022-12-17T10:13:07.101Z,1022.28
2022-12-17T10:14:07.094Z,1022.31
2022-12-17T10:15:07.076Z,1022.36
2022-12-17T10:16:07.089Z,1022.38
2022-12-17T10:17:11.597Z,1022.38
2022-12-17T10:18:07.040Z,1022.35
2022-12-17T10:19:07.064Z,1022.36
2022-12-17T10:20:07.010Z,1022.35
2022-12-17T10:21:07.589Z,1022.38
2022-12-17T10:22:07.068Z,1022.38
2022-12-17T10:23:06.959Z,1022.39
2022-12-17T10:24:06.952Z,1022.40
2022-12-17T10:25:06.926Z,1022.43
2022-12-17T10:26:06.907Z,1022.41
2022-12-17T10:27:07.266Z,1022.36
2022-12-17T10:28:06.880Z,1022.37
2022-12-17T10:29:06.861Z,1022.34
2022-12-17T10:30:06.843Z,1022.35
2022-12-17T10:31:06.881Z,1022.30
2022-12-17T10:32:07.254Z,1022.33
2022-12-17T10:33:06.800Z,1022.35
2022-12-17T10:34:06.787Z,1022.33
2022-12-17T10:35:06.773Z,1022.32
2022-12-17T10:36:06.753Z,1022.32
2022-12-17T10:37:07.002Z,1022.34
2022-12-17T10:38:06.726Z,1022.39
2022-12-17T10:39:06.760Z,1022.39
2022-12-17T10:40:06.796Z,1022.46
2022-12-17T10:41:06.675Z,1022.47
2022-12-17T10:42:06.659Z,1022.47
2022-12-17T10:43:06.644Z,1022.50
2022-12-17T10:44:06.630Z,1022.48
2022-12-17T10:45:06.616Z,1022.50
2022-12-17T10:46:06.673Z,1022.52
2022-12-17T10:47:06.583Z,1022.51
2022-12-17T10:48:06.568Z,1022.49
2022-12-17T10:49:11.265Z,1022.49
2022-12-17T10:50:06.549Z,1022.48
2022-12-17T10:51:06.540Z,1022.49
2022-12-17T10:52:06.509Z,1022.46
2022-12-17T10:53:06.491Z,1022.50
2022-12-17T10:54:06.477Z,1022.50
2022-12-17T10:55:06.460Z,1022.52
2022-12-17T10:56:06.445Z,1022.50
2022-12-17T10:57:06.428Z,1022.48
2022-12-17T10:58:06.414Z,1022.48
2022-12-17T10:59:06.402Z,1022.52
2022-12-17T11:00:06.385Z,1022.55
2022-12-17T11:01:06.376Z,1022.56
2022-12-17T11:02:06.453Z,1022.53
2022-12-17T11:03:06.461Z,1022.59
2022-12-17T11:04:06.324Z,1022.55
2022-12-17T11:05:06.306Z,1022.57
2022-12-17T11:06:06.290Z,1022.60
2022-12-17T11:07:06.280Z,1022.60
2022-12-17T11:08:06.259Z,1022.62
2022-12-17T11:09:06.248Z,1022.59
2022-12-17T11:10:09.478Z,1022.58
2022-12-17T11:11:06.213Z,1022.59
2022-12-17T11:12:07.565Z,1022.61
2022-12-17T11:13:06.184Z,1022.62
2022-12-17T11:14:06.167Z,1022.63
2022-12-17T11:15:06.147Z,1022.68
2022-12-17T11:16:06.204Z,1022.67
2022-12-17T11:17:06.121Z,1022.67
2022-12-17T11:18:11.085Z,1022.68
2022-12-17T11:19:06.107Z,1022.68
2022-12-17T11:20:06.077Z,1022.67
2022-12-17T11:21:06.060Z,1022.67
2022-12-17T11:22:06.046Z,1022.66
2022-12-17T11:23:06.029Z,1022.70
2022-12-17T11:24:06.014Z,1022.71
2022-12-17T11:25:05.998Z,1022.77
2022-12-17T11:26:05.986Z,1022.75
2022-12-17T11:27:05.971Z,1022.79
2022-12-17T11:28:06.693Z,1022.79
2022-12-17T11:29:05.940Z,1022.79
2022-12-17T11:30:05.940Z,1022.82
2022-12-17T11:31:05.973Z,1022.80
2022-12-17T11:32:05.907Z,1022.87
2022-12-17T11:33:05.881Z,1022.83
2022-12-17T11:34:05.864Z,1022.86
2022-12-17T11:35:05.849Z,1022.87
2022-12-17T11:36:05.838Z,1022.87
2022-12-17T11:37:05.820Z,1022.89
2022-12-17T11:38:05.804Z,1022.88
2022-12-17T11:39:05.854Z,1022.90
2022-12-17T11:40:05.795Z,1022.91
2022-12-17T11:41:05.759Z,1022.89
2022-12-17T11:42:11.060Z,1022.87
2022-12-17T11:43:05.729Z,1022.91
2022-12-17T11:44:05.714Z,1022.93
2022-12-17T11:45:05.746Z,1022.90
2022-12-17T11:46:05.710Z,1022.93
2022-12-17T11:47:05.666Z,1022.88
2022-12-17T11:48:05.656Z,1022.90
2022-12-17T11:49:05.647Z,1022.93
2022-12-17T11:50:05.640Z,1022.92
2022-12-17T11:51:05.669Z,1022.93
2022-12-17T11:52:05.594Z,1022.97
2022-12-17T11:53:05.584Z,1022.93
2022-12-17T11:54:05.572Z,1022.93
2022-12-17T11:55:05.547Z,1022.99
2022-12-17T11:56:05.536Z,1023.02
2022-12-17T11:57:05.517Z,1022.98
2022-12-17T11:58:05.532Z,1023.03
2022-12-17T11:59:05.485Z,1023.03
2022-12-17T12:00:05.486Z,1023.01
2022-12-17T12:01:05.478Z,1022.96
2022-12-17T12:02:05.464Z,1022.97
2022-12-17T12:03:05.560Z,1022.98
2022-12-17T12:04:05.456Z,1022.95
2022-12-17T12:05:05.476Z,1022.98